sensor_id;sensor_type;location;lat;lon;timestamp;P1;durP1;ratioP1;P2;durP2;ratioP2
8450;SDS011;4262;50.980;13.892;2022-10-31T04:34:07;36.20;;;20.90;;
8450;SDS011;4262;50.980;13.892;2022-10-31T04:36:34;33.67;;;18.70;;
8450;SDS011;4262;50.980;13.892;2022-10-31T04:39:01;33.93;;;20.57;;
8450;SDS011;4262;50.980;13.892;2022-10-31T04:41:37;29.93;;;18.43;;
8450;SDS011;4262;50.980;13.892;2022-10-31T04:44:11;32.33;;;19.10;;
8450;SDS011;4262;50.980;13.892;2022-10-31T04:46:38;30.70;;;18.20;;
8450;SDS011;4262;50.980;13.892;2022-10-31T04:49:08;34.30;;;18.80;;
8450;SDS011;4262;50.980;13.892;2022-10-31T04:51:35;32.57;;;17.67;;
8450;SDS011;4262;50.980;13.892;2022-10-31T04:54:03;32.87;;;18.00;;
8450;SDS011;4262;50.980;13.892;2022-10-31T04:56:49;33.90;;;17.90;;
8450;SDS011;4262;50.980;13.892;2022-10-31T04:59:20;31.23;;;17.93;;
8450;SDS011;4262;50.980;13.892;2022-10-31T05:01:52;32.70;;;18.20;;
8450;SDS011;4262;50.980;13.892;2022-10-31T05:04:50;29.50;;;18.87;;
8450;SDS011;4262;50.980;13.892;2022-10-31T05:07:17;29.40;;;17.70;;
8450;SDS011;4262;50.980;13.892;2022-10-31T05:09:44;34.63;;;19.03;;
8450;SDS011;4262;50.980;13.892;2022-10-31T05:12:12;31.87;;;18.87;;
8450;SDS011;4262;50.980;13.892;2022-10-31T05:14:58;35.00;;;18.10;;
8450;SDS011;4262;50.980;13.892;2022-10-31T05:17:44;24.53;;;13.93;;
8450;SDS011;4262;50.980;13.892;2022-10-31T05:20:31;30.67;;;17.87;;
8450;SDS011;4262;50.980;13.892;2022-10-31T05:23:20;31.47;;;17.13;;
8450;SDS011;4262;50.980;13.892;2022-10-31T05:25:47;36.87;;;19.60;;
8450;SDS011;4262;50.980;13.892;2022-10-31T05:28:14;35.30;;;18.47;;
8450;SDS011;4262;50.980;13.892;2022-10-31T05:30:41;34.50;;;21.50;;
8450;SDS011;4262;50.980;13.892;2022-10-31T05:33:12;31.40;;;18.63;;
8450;SDS011;4262;50.980;13.892;2022-10-31T05:36:06;32.60;;;19.40;;
8450;SDS011;4262;50.980;13.892;2022-10-31T05:38:38;35.90;;;20.13;;
8450;SDS011;4262;50.980;13.892;2022-10-31T05:41:13;37.57;;;20.13;;
8450;SDS011;4262;50.980;13.892;2022-10-31T05:43:44;43.40;;;19.80;;
8450;SDS011;4262;50.980;13.892;2022-10-31T05:46:12;33.50;;;19.43;;
8450;SDS011;4262;50.980;13.892;2022-10-31T05:48:58;29.60;;;17.60;;
8450;SDS011;4262;50.980;13.892;2022-10-31T05:51:45;34.27;;;20.17;;
8450;SDS011;4262;50.980;13.892;2022-10-31T05:54:12;33.47;;;18.37;;
8450;SDS011;4262;50.980;13.892;2022-10-31T05:56:40;37.03;;;17.93;;
8450;SDS011;4262;50.980;13.892;2022-10-31T05:59:06;32.57;;;18.97;;
8450;SDS011;4262;50.980;13.892;2022-10-31T06:01:33;35.00;;;19.80;;
8450;SDS011;4262;50.980;13.892;2022-10-31T06:04:04;32.83;;;19.30;;
8450;SDS011;4262;50.980;13.892;2022-10-31T06:06:33;29.00;;;17.60;;
8450;SDS011;4262;50.980;13.892;2022-10-31T06:09:01;34.90;;;16.93;;
8450;SDS011;4262;50.980;13.892;2022-10-31T06:11:31;33.77;;;19.00;;
8450;SDS011;4262;50.980;13.892;2022-10-31T06:14:01;31.47;;;19.63;;
8450;SDS011;4262;50.980;13.892;2022-10-31T06:16:46;40.10;;;22.80;;
8450;SDS011;4262;50.980;13.892;2022-10-31T06:19:32;28.67;;;19.00;;
8450;SDS011;4262;50.980;13.892;2022-10-31T06:21:59;25.33;;;15.90;;
8450;SDS011;4262;50.980;13.892;2022-10-31T06:24:29;32.70;;;17.63;;
8450;SDS011;4262;50.980;13.892;2022-10-31T06:27:01;26.70;;;15.80;;
8450;SDS011;4262;50.980;13.892;2022-10-31T06:29:28;27.23;;;17.13;;
8450;SDS011;4262;50.980;13.892;2022-10-31T06:32:04;32.40;;;16.03;;
8450;SDS011;4262;50.980;13.892;2022-10-31T06:34:37;31.50;;;16.70;;
8450;SDS011;4262;50.980;13.892;2022-10-31T06:37:05;35.00;;;16.50;;
8450;SDS011;4262;50.980;13.892;2022-10-31T06:39:34;28.73;;;17.30;;
8450;SDS011;4262;50.980;13.892;2022-10-31T06:42:03;27.10;;;16.20;;
8450;SDS011;4262;50.980;13.892;2022-10-31T06:44:31;28.70;;;17.67;;
8450;SDS011;4262;50.980;13.892;2022-10-31T06:47:17;28.20;;;17.57;;
8450;SDS011;4262;50.980;13.892;2022-10-31T06:50:05;29.53;;;16.43;;
8450;SDS011;4262;50.980;13.892;2022-10-31T06:52:33;31.60;;;16.27;;
8450;SDS011;4262;50.980;13.892;2022-10-31T06:55:04;34.30;;;16.33;;
8450;SDS011;4262;50.980;13.892;2022-10-31T06:57:32;23.23;;;15.30;;
8450;SDS011;4262;50.980;13.892;2022-10-31T06:59:59;26.30;;;17.20;;
8450;SDS011;4262;50.980;13.892;2022-10-31T07:02:36;25.93;;;15.87;;
8450;SDS011;4262;50.980;13.892;2022-10-31T07:05:04;28.47;;;15.60;;
8450;SDS011;4262;50.980;13.892;2022-10-31T07:07:32;22.83;;;14.33;;
8450;SDS011;4262;50.980;13.892;2022-10-31T07:09:58;27.83;;;16.10;;
8450;SDS011;4262;50.980;13.892;2022-10-31T07:12:43;27.50;;;15.40;;
8450;SDS011;4262;50.980;13.892;2022-10-31T07:15:09;28.07;;;16.97;;
8450;SDS011;4262;50.980;13.892;2022-10-31T07:17:37;23.70;;;15.20;;
8450;SDS011;4262;50.980;13.892;2022-10-31T07:20:05;25.90;;;15.13;;
8450;SDS011;4262;50.980;13.892;2022-10-31T07:22:33;28.13;;;15.27;;
8450;SDS011;4262;50.980;13.892;2022-10-31T07:25:02;24.40;;;15.30;;
8450;SDS011;4262;50.980;13.892;2022-10-31T07:28:06;23.70;;;13.57;;
8450;SDS011;4262;50.980;13.892;2022-10-31T07:30:33;22.83;;;14.33;;
8450;SDS011;4262;50.980;13.892;2022-10-31T07:33:00;20.63;;;12.73;;
8450;SDS011;4262;50.980;13.892;2022-10-31T07:35:53;23.93;;;13.27;;
8450;SDS011;4262;50.980;13.892;2022-10-31T07:38:23;22.27;;;14.07;;
8450;SDS011;4262;50.980;13.892;2022-10-31T07:40:51;20.63;;;14.27;;
8450;SDS011;4262;50.980;13.892;2022-10-31T07:43:20;24.90;;;13.87;;
8450;SDS011;4262;50.980;13.892;2022-10-31T07:46:16;23.73;;;14.40;;
8450;SDS011;4262;50.980;13.892;2022-10-31T07:49:19;22.53;;;13.33;;
8450;SDS011;4262;50.980;13.892;2022-10-31T07:52:04;22.73;;;13.97;;
8450;SDS011;4262;50.980;13.892;2022-10-31T07:54:49;23.93;;;15.00;;
8450;SDS011;4262;50.980;13.892;2022-10-31T07:57:21;22.80;;;13.03;;
8450;SDS011;4262;50.980;13.892;2022-10-31T07:59:50;22.10;;;12.90;;
8450;SDS011;4262;50.980;13.892;2022-10-31T08:02:17;20.83;;;13.20;;
8450;SDS011;4262;50.980;13.892;2022-10-31T08:04:47;20.30;;;12.83;;
8450;SDS011;4262;50.980;13.892;2022-10-31T08:07:46;20.53;;;12.93;;
8450;SDS011;4262;50.980;13.892;2022-10-31T08:10:19;19.30;;;12.73;;
8450;SDS011;4262;50.980;13.892;2022-10-31T08:12:46;21.10;;;12.30;;
8450;SDS011;4262;50.980;13.892;2022-10-31T08:15:14;22.60;;;13.13;;
8450;SDS011;4262;50.980;13.892;2022-10-31T08:17:41;18.83;;;11.13;;
8450;SDS011;4262;50.980;13.892;2022-10-31T08:20:09;18.87;;;11.50;;
8450;SDS011;4262;50.980;13.892;2022-10-31T08:22:43;18.03;;;12.83;;
8450;SDS011;4262;50.980;13.892;2022-10-31T08:25:18;16.93;;;10.40;;
8450;SDS011;4262;50.980;13.892;2022-10-31T08:27:48;15.80;;;9.83;;
8450;SDS011;4262;50.980;13.892;2022-10-31T08:30:18;20.80;;;11.40;;
8450;SDS011;4262;50.980;13.892;2022-10-31T08:33:01;17.40;;;11.40;;
8450;SDS011;4262;50.980;13.892;2022-10-31T08:35:49;21.37;;;11.50;;
8450;SDS011;4262;50.980;13.892;2022-10-31T08:38:42;19.43;;;10.83;;
8450;SDS011;4262;50.980;13.892;2022-10-31T08:41:10;18.53;;;11.03;;
8450;SDS011;4262;50.980;13.892;2022-10-31T08:43:37;19.20;;;11.83;;
8450;SDS011;4262;50.980;13.892;2022-10-31T08:46:05;19.73;;;10.60;;
8450;SDS011;4262;50.980;13.892;2022-10-31T08:48:33;15.00;;;9.93;;
8450;SDS011;4262;50.980;13.892;2022-10-31T08:51:03;17.60;;;9.80;;
8450;SDS011;4262;50.980;13.892;2022-10-31T08:53:31;17.67;;;8.87;;
8450;SDS011;4262;50.980;13.892;2022-10-31T08:56:21;20.33;;;10.40;;
8450;SDS011;4262;50.980;13.892;2022-10-31T08:58:48;16.33;;;8.73;;
8450;SDS011;4262;50.980;13.892;2022-10-31T09:01:22;18.47;;;8.50;;
8450;SDS011;4262;50.980;13.892;2022-10-31T09:03:49;13.83;;;7.87;;
8450;SDS011;4262;50.980;13.892;2022-10-31T09:06:15;14.07;;;8.40;;
8450;SDS011;4262;50.980;13.892;2022-10-31T09:08:42;16.70;;;8.17;;
8450;SDS011;4262;50.980;13.892;2022-10-31T09:11:09;14.27;;;8.00;;
8450;SDS011;4262;50.980;13.892;2022-10-31T09:13:56;15.83;;;8.30;;
8450;SDS011;4262;50.980;13.892;2022-10-31T09:16:48;13.87;;;7.77;;
8450;SDS011;4262;50.980;13.892;2022-10-31T09:19:20;13.80;;;7.60;;
8450;SDS011;4262;50.980;13.892;2022-10-31T09:21:47;12.37;;;7.40;;
8450;SDS011;4262;50.980;13.892;2022-10-31T09:24:18;13.07;;;7.43;;
8450;SDS011;4262;50.980;13.892;2022-10-31T09:26:45;14.80;;;8.40;;
8450;SDS011;4262;50.980;13.892;2022-10-31T09:29:32;15.87;;;7.50;;
8450;SDS011;4262;50.980;13.892;2022-10-31T09:32:04;13.33;;;7.17;;
8450;SDS011;4262;50.980;13.892;2022-10-31T09:34:36;12.77;;;7.50;;
8450;SDS011;4262;50.980;13.892;2022-10-31T09:37:05;14.63;;;8.10;;
8450;SDS011;4262;50.980;13.892;2022-10-31T09:39:34;12.20;;;7.63;;
8450;SDS011;4262;50.980;13.892;2022-10-31T09:42:17;14.33;;;7.27;;
8450;SDS011;4262;50.980;13.892;2022-10-31T09:44:57;17.70;;;8.13;;
8450;SDS011;4262;50.980;13.892;2022-10-31T09:47:38;11.80;;;6.60;;
8450;SDS011;4262;50.980;13.892;2022-10-31T09:50:36;13.50;;;7.50;;
8450;SDS011;4262;50.980;13.892;2022-10-31T09:53:43;15.47;;;7.60;;
8450;SDS011;4262;50.980;13.892;2022-10-31T09:56:19;15.10;;;7.20;;
8450;SDS011;4262;50.980;13.892;2022-10-31T09:58:49;12.23;;;7.10;;
8450;SDS011;4262;50.980;13.892;2022-10-31T10:01:23;16.10;;;7.17;;
8450;SDS011;4262;50.980;13.892;2022-10-31T10:03:59;14.60;;;7.70;;
8450;SDS011;4262;50.980;13.892;2022-10-31T10:07:02;14.27;;;7.47;;
8450;SDS011;4262;50.980;13.892;2022-10-31T10:09:43;16.30;;;7.63;;
8450;SDS011;4262;50.980;13.892;2022-10-31T10:12:35;12.93;;;6.72;;
8450;SDS011;4262;50.980;13.892;2022-10-31T10:15:27;12.20;;;7.18;;
8450;SDS011;4262;50.980;13.892;2022-10-31T10:18:06;16.52;;;6.93;;
8450;SDS011;4262;50.980;13.892;2022-10-31T10:20:43;13.63;;;6.47;;
8450;SDS011;4262;50.980;13.892;2022-10-31T10:23:26;11.52;;;6.63;;
8450;SDS011;4262;50.980;13.892;2022-10-31T10:26:02;12.38;;;6.65;;
8450;SDS011;4262;50.980;13.892;2022-10-31T10:28:37;14.50;;;6.38;;
8450;SDS011;4262;50.980;13.892;2022-10-31T10:31:08;15.25;;;6.95;;
8450;SDS011;4262;50.980;13.892;2022-10-31T10:33:40;11.23;;;5.70;;
8450;SDS011;4262;50.980;13.892;2022-10-31T10:36:16;11.32;;;5.90;;
8450;SDS011;4262;50.980;13.892;2022-10-31T10:38:50;12.32;;;5.38;;
8450;SDS011;4262;50.980;13.892;2022-10-31T10:41:19;13.18;;;5.07;;
8450;SDS011;4262;50.980;13.892;2022-10-31T10:43:48;14.20;;;6.00;;
8450;SDS011;4262;50.980;13.892;2022-10-31T10:46:19;13.13;;;5.68;;
8450;SDS011;4262;50.980;13.892;2022-10-31T10:49:16;10.63;;;5.00;;
8450;SDS011;4262;50.980;13.892;2022-10-31T10:51:46;12.90;;;6.07;;
8450;SDS011;4262;50.980;13.892;2022-10-31T10:57:38;10.70;;;5.78;;
8450;SDS011;4262;50.980;13.892;2022-10-31T11:00:20;11.40;;;5.28;;
8450;SDS011;4262;50.980;13.892;2022-10-31T11:02:48;17.85;;;6.57;;
8450;SDS011;4262;50.980;13.892;2022-10-31T11:05:19;13.18;;;5.65;;
8450;SDS011;4262;50.980;13.892;2022-10-31T11:07:51;17.02;;;6.07;;
8450;SDS011;4262;50.980;13.892;2022-10-31T11:10:18;14.82;;;5.40;;
8450;SDS011;4262;50.980;13.892;2022-10-31T11:12:56;14.85;;;5.65;;
8450;SDS011;4262;50.980;13.892;2022-10-31T11:15:26;16.00;;;5.85;;
8450;SDS011;4262;50.980;13.892;2022-10-31T11:17:57;17.50;;;5.50;;
8450;SDS011;4262;50.980;13.892;2022-10-31T11:20:26;17.10;;;5.50;;
8450;SDS011;4262;50.980;13.892;2022-10-31T11:23:02;15.23;;;5.88;;
8450;SDS011;4262;50.980;13.892;2022-10-31T11:25:31;16.83;;;5.50;;
8450;SDS011;4262;50.980;13.892;2022-10-31T11:27:58;12.05;;;5.78;;
8450;SDS011;4262;50.980;13.892;2022-10-31T11:30:26;15.88;;;6.40;;
8450;SDS011;4262;50.980;13.892;2022-10-31T11:32:53;23.77;;;6.07;;
8450;SDS011;4262;50.980;13.892;2022-10-31T11:35:20;15.82;;;5.85;;
8450;SDS011;4262;50.980;13.892;2022-10-31T11:37:51;15.93;;;6.00;;
8450;SDS011;4262;50.980;13.892;2022-10-31T11:40:22;15.40;;;5.38;;
8450;SDS011;4262;50.980;13.892;2022-10-31T11:42:52;15.25;;;6.57;;
8450;SDS011;4262;50.980;13.892;2022-10-31T11:45:27;17.05;;;5.80;;
8450;SDS011;4262;50.980;13.892;2022-10-31T11:47:57;11.50;;;5.32;;
8450;SDS011;4262;50.980;13.892;2022-10-31T11:50:33;19.30;;;6.35;;
8450;SDS011;4262;50.980;13.892;2022-10-31T11:53:09;11.70;;;5.80;;
8450;SDS011;4262;50.980;13.892;2022-10-31T11:55:42;19.92;;;6.68;;
8450;SDS011;4262;50.980;13.892;2022-10-31T11:58:19;15.70;;;6.50;;
8450;SDS011;4262;50.980;13.892;2022-10-31T12:00:48;17.52;;;5.57;;
8450;SDS011;4262;50.980;13.892;2022-10-31T12:03:23;19.85;;;6.53;;
8450;SDS011;4262;50.980;13.892;2022-10-31T12:05:58;18.10;;;6.15;;
8450;SDS011;4262;50.980;13.892;2022-10-31T12:08:29;12.60;;;5.45;;
8450;SDS011;4262;50.980;13.892;2022-10-31T12:11:00;22.20;;;7.82;;
8450;SDS011;4262;50.980;13.892;2022-10-31T12:13:37;20.05;;;6.53;;
8450;SDS011;4262;50.980;13.892;2022-10-31T12:16:08;18.27;;;6.35;;
8450;SDS011;4262;50.980;13.892;2022-10-31T12:18:46;19.23;;;7.63;;
8450;SDS011;4262;50.980;13.892;2022-10-31T12:21:38;15.07;;;6.40;;
8450;SDS011;4262;50.980;13.892;2022-10-31T12:24:17;16.58;;;7.57;;
8450;SDS011;4262;50.980;13.892;2022-10-31T12:26:58;22.75;;;6.78;;
8450;SDS011;4262;50.980;13.892;2022-10-31T12:29:36;17.88;;;7.10;;
8450;SDS011;4262;50.980;13.892;2022-10-31T12:32:20;18.17;;;7.43;;
8450;SDS011;4262;50.980;13.892;2022-10-31T12:37:54;15.57;;;6.97;;
8450;SDS011;4262;50.980;13.892;2022-10-31T12:40:37;16.77;;;6.97;;
8450;SDS011;4262;50.980;13.892;2022-10-31T12:43:29;19.42;;;7.68;;
8450;SDS011;4262;50.980;13.892;2022-10-31T12:46:07;17.90;;;7.43;;
8450;SDS011;4262;50.980;13.892;2022-10-31T12:48:56;20.48;;;8.45;;
8450;SDS011;4262;50.980;13.892;2022-10-31T12:51:40;16.40;;;7.30;;
8450;SDS011;4262;50.980;13.892;2022-10-31T12:54:21;16.10;;;6.80;;
8450;SDS011;4262;50.980;13.892;2022-10-31T12:57:02;23.05;;;7.47;;
8450;SDS011;4262;50.980;13.892;2022-10-31T12:59:37;22.95;;;7.43;;
8450;SDS011;4262;50.980;13.892;2022-10-31T13:02:10;23.65;;;7.40;;
8450;SDS011;4262;50.980;13.892;2022-10-31T13:04:44;19.75;;;7.88;;
8450;SDS011;4262;50.980;13.892;2022-10-31T13:07:18;21.73;;;8.48;;
8450;SDS011;4262;50.980;13.892;2022-10-31T13:09:50;20.52;;;7.80;;
8450;SDS011;4262;50.980;13.892;2022-10-31T13:12:22;20.33;;;7.22;;
8450;SDS011;4262;50.980;13.892;2022-10-31T13:14:55;15.32;;;7.13;;
8450;SDS011;4262;50.980;13.892;2022-10-31T13:17:27;20.08;;;7.47;;
8450;SDS011;4262;50.980;13.892;2022-10-31T13:20:03;19.27;;;7.00;;
8450;SDS011;4262;50.980;13.892;2022-10-31T13:22:42;17.00;;;7.05;;
8450;SDS011;4262;50.980;13.892;2022-10-31T13:25:13;19.25;;;6.70;;
8450;SDS011;4262;50.980;13.892;2022-10-31T13:27:47;21.13;;;7.03;;
8450;SDS011;4262;50.980;13.892;2022-10-31T13:30:19;24.08;;;7.30;;
8450;SDS011;4262;50.980;13.892;2022-10-31T13:32:48;20.75;;;6.85;;
8450;SDS011;4262;50.980;13.892;2022-10-31T13:35:21;22.35;;;6.63;;
8450;SDS011;4262;50.980;13.892;2022-10-31T13:37:56;18.55;;;7.00;;
8450;SDS011;4262;50.980;13.892;2022-10-31T13:40:48;19.15;;;6.03;;
8450;SDS011;4262;50.980;13.892;2022-10-31T13:43:26;19.20;;;7.07;;
8450;SDS011;4262;50.980;13.892;2022-10-31T13:46:00;16.73;;;6.38;;
8450;SDS011;4262;50.980;13.892;2022-10-31T13:48:34;13.55;;;6.35;;
8450;SDS011;4262;50.980;13.892;2022-10-31T13:51:05;20.63;;;6.85;;
8450;SDS011;4262;50.980;13.892;2022-10-31T13:53:37;19.17;;;6.57;;
8450;SDS011;4262;50.980;13.892;2022-10-31T13:56:13;18.95;;;6.43;;
8450;SDS011;4262;50.980;13.892;2022-10-31T13:58:43;19.35;;;6.65;;
8450;SDS011;4262;50.980;13.892;2022-10-31T14:01:25;20.63;;;5.90;;
8450;SDS011;4262;50.980;13.892;2022-10-31T14:03:56;16.65;;;6.45;;
8450;SDS011;4262;50.980;13.892;2022-10-31T14:06:36;24.75;;;7.25;;
8450;SDS011;4262;50.980;13.892;2022-10-31T14:09:15;23.38;;;7.03;;
8450;SDS011;4262;50.980;13.892;2022-10-31T14:11:52;22.55;;;6.45;;
8450;SDS011;4262;50.980;13.892;2022-10-31T14:14:20;24.08;;;6.50;;
8450;SDS011;4262;50.980;13.892;2022-10-31T14:16:55;17.07;;;6.20;;
8450;SDS011;4262;50.980;13.892;2022-10-31T14:19:23;20.83;;;6.38;;
8450;SDS011;4262;50.980;13.892;2022-10-31T14:21:52;21.27;;;6.97;;
8450;SDS011;4262;50.980;13.892;2022-10-31T14:24:33;30.83;;;7.50;;
8450;SDS011;4262;50.980;13.892;2022-10-31T14:27:02;26.50;;;7.80;;
8450;SDS011;4262;50.980;13.892;2022-10-31T14:29:31;28.60;;;7.80;;
8450;SDS011;4262;50.980;13.892;2022-10-31T14:32:16;18.20;;;6.50;;
8450;SDS011;4262;50.980;13.892;2022-10-31T14:34:51;24.30;;;7.00;;
8450;SDS011;4262;50.980;13.892;2022-10-31T14:37:30;21.30;;;8.00;;
8450;SDS011;4262;50.980;13.892;2022-10-31T14:40:08;17.40;;;6.80;;
8450;SDS011;4262;50.980;13.892;2022-10-31T14:42:49;15.57;;;6.80;;
8450;SDS011;4262;50.980;13.892;2022-10-31T14:45:29;24.93;;;7.20;;
8450;SDS011;4262;50.980;13.892;2022-10-31T14:48:09;24.17;;;7.47;;
8450;SDS011;4262;50.980;13.892;2022-10-31T14:50:46;23.00;;;7.47;;
8450;SDS011;4262;50.980;13.892;2022-10-31T14:53:16;20.63;;;7.30;;
8450;SDS011;4262;50.980;13.892;2022-10-31T14:55:48;27.63;;;8.53;;
8450;SDS011;4262;50.980;13.892;2022-10-31T14:58:19;21.13;;;7.80;;
8450;SDS011;4262;50.980;13.892;2022-10-31T15:00:48;19.97;;;7.37;;
8450;SDS011;4262;50.980;13.892;2022-10-31T15:03:20;17.97;;;6.80;;
8450;SDS011;4262;50.980;13.892;2022-10-31T15:05:52;23.27;;;7.20;;
8450;SDS011;4262;50.980;13.892;2022-10-31T15:08:29;17.60;;;7.20;;
8450;SDS011;4262;50.980;13.892;2022-10-31T15:11:02;22.10;;;7.67;;
8450;SDS011;4262;50.980;13.892;2022-10-31T15:13:30;28.40;;;6.90;;
8450;SDS011;4262;50.980;13.892;2022-10-31T15:15:56;21.83;;;7.40;;
8450;SDS011;4262;50.980;13.892;2022-10-31T15:18:26;22.90;;;7.33;;
8450;SDS011;4262;50.980;13.892;2022-10-31T15:20:55;22.87;;;9.93;;
8450;SDS011;4262;50.980;13.892;2022-10-31T15:23:25;21.27;;;8.20;;
8450;SDS011;4262;50.980;13.892;2022-10-31T15:26:03;21.67;;;7.60;;
8450;SDS011;4262;50.980;13.892;2022-10-31T15:28:31;21.77;;;7.80;;
8450;SDS011;4262;50.980;13.892;2022-10-31T15:30:59;22.83;;;8.30;;
8450;SDS011;4262;50.980;13.892;2022-10-31T15:33:29;17.27;;;8.10;;
8450;SDS011;4262;50.980;13.892;2022-10-31T15:35:58;19.60;;;8.00;;
8450;SDS011;4262;50.980;13.892;2022-10-31T15:38:27;31.17;;;8.50;;
8450;SDS011;4262;50.980;13.892;2022-10-31T15:40:56;19.90;;;8.00;;
8450;SDS011;4262;50.980;13.892;2022-10-31T15:43:26;28.37;;;8.00;;
8450;SDS011;4262;50.980;13.892;2022-10-31T15:45:56;27.53;;;8.23;;
8450;SDS011;4262;50.980;13.892;2022-10-31T15:48:24;20.37;;;9.43;;
8450;SDS011;4262;50.980;13.892;2022-10-31T15:50:53;19.50;;;7.70;;
8450;SDS011;4262;50.980;13.892;2022-10-31T15:53:23;23.33;;;8.47;;
8450;SDS011;4262;50.980;13.892;2022-10-31T15:55:54;24.30;;;9.57;;
8450;SDS011;4262;50.980;13.892;2022-10-31T15:58:23;19.87;;;7.93;;
8450;SDS011;4262;50.980;13.892;2022-10-31T16:00:59;19.67;;;7.80;;
8450;SDS011;4262;50.980;13.892;2022-10-31T16:03:28;15.50;;;7.20;;
8450;SDS011;4262;50.980;13.892;2022-10-31T16:05:58;20.93;;;8.00;;
8450;SDS011;4262;50.980;13.892;2022-10-31T16:08:31;14.90;;;7.77;;
8450;SDS011;4262;50.980;13.892;2022-10-31T16:11:00;19.27;;;7.57;;
8450;SDS011;4262;50.980;13.892;2022-10-31T16:13:40;23.57;;;8.40;;
8450;SDS011;4262;50.980;13.892;2022-10-31T16:16:18;20.40;;;8.97;;
8450;SDS011;4262;50.980;13.892;2022-10-31T16:18:47;21.97;;;9.30;;
8450;SDS011;4262;50.980;13.892;2022-10-31T16:21:22;21.73;;;9.90;;
8450;SDS011;4262;50.980;13.892;2022-10-31T16:23:51;24.87;;;9.67;;
8450;SDS011;4262;50.980;13.892;2022-10-31T16:26:23;34.13;;;12.73;;
8450;SDS011;4262;50.980;13.892;2022-10-31T16:28:51;28.17;;;14.40;;
8450;SDS011;4262;50.980;13.892;2022-10-31T16:31:24;31.70;;;15.40;;
8450;SDS011;4262;50.980;13.892;2022-10-31T16:34:04;43.17;;;19.47;;
8450;SDS011;4262;50.980;13.892;2022-10-31T16:36:33;31.60;;;17.33;;
8450;SDS011;4262;50.980;13.892;2022-10-31T16:39:03;25.90;;;13.30;;
8450;SDS011;4262;50.980;13.892;2022-10-31T16:41:30;27.50;;;15.30;;
8450;SDS011;4262;50.980;13.892;2022-10-31T16:44:01;38.23;;;20.07;;
8450;SDS011;4262;50.980;13.892;2022-10-31T16:46:30;31.90;;;15.53;;
8450;SDS011;4262;50.980;13.892;2022-10-31T16:48:57;24.43;;;13.97;;
8450;SDS011;4262;50.980;13.892;2022-10-31T16:51:24;36.17;;;15.33;;
8450;SDS011;4262;50.980;13.892;2022-10-31T16:53:55;27.83;;;16.20;;
8450;SDS011;4262;50.980;13.892;2022-10-31T16:56:23;29.13;;;14.90;;
8450;SDS011;4262;50.980;13.892;2022-10-31T16:58:57;29.13;;;15.07;;
8450;SDS011;4262;50.980;13.892;2022-10-31T17:01:39;43.93;;;24.07;;
8450;SDS011;4262;50.980;13.892;2022-10-31T17:04:11;41.03;;;21.10;;
8450;SDS011;4262;50.980;13.892;2022-10-31T17:06:39;58.10;;;26.53;;
8450;SDS011;4262;50.980;13.892;2022-10-31T17:09:08;42.03;;;21.63;;
8450;SDS011;4262;50.980;13.892;2022-10-31T17:11:35;48.60;;;25.53;;
8450;SDS011;4262;50.980;13.892;2022-10-31T17:14:03;38.40;;;20.00;;
8450;SDS011;4262;50.980;13.892;2022-10-31T17:16:31;60.60;;;32.13;;
8450;SDS011;4262;50.980;13.892;2022-10-31T17:18:58;50.40;;;28.93;;
8450;SDS011;4262;50.980;13.892;2022-10-31T17:21:24;40.00;;;20.37;;
8450;SDS011;4262;50.980;13.892;2022-10-31T17:23:52;33.67;;;17.73;;
8450;SDS011;4262;50.980;13.892;2022-10-31T17:26:21;42.73;;;23.77;;
8450;SDS011;4262;50.980;13.892;2022-10-31T17:28:47;39.90;;;22.00;;
8450;SDS011;4262;50.980;13.892;2022-10-31T17:31:18;37.77;;;19.93;;
8450;SDS011;4262;50.980;13.892;2022-10-31T17:33:46;42.27;;;19.87;;
8450;SDS011;4262;50.980;13.892;2022-10-31T17:36:13;34.43;;;17.83;;
8450;SDS011;4262;50.980;13.892;2022-10-31T17:38:40;39.70;;;18.20;;
8450;SDS011;4262;50.980;13.892;2022-10-31T17:41:07;30.03;;;18.30;;
8450;SDS011;4262;50.980;13.892;2022-10-31T17:43:36;33.80;;;16.80;;
8450;SDS011;4262;50.980;13.892;2022-10-31T17:46:03;31.20;;;16.60;;
8450;SDS011;4262;50.980;13.892;2022-10-31T17:48:31;31.90;;;16.93;;
8450;SDS011;4262;50.980;13.892;2022-10-31T17:50:59;35.07;;;18.20;;
8450;SDS011;4262;50.980;13.892;2022-10-31T17:53:27;30.83;;;17.10;;
8450;SDS011;4262;50.980;13.892;2022-10-31T17:55:59;33.83;;;16.70;;
8450;SDS011;4262;50.980;13.892;2022-10-31T17:58:27;34.30;;;17.53;;
8450;SDS011;4262;50.980;13.892;2022-10-31T18:00:55;32.70;;;17.40;;
8450;SDS011;4262;50.980;13.892;2022-10-31T18:03:22;36.57;;;19.30;;
8450;SDS011;4262;50.980;13.892;2022-10-31T18:05:50;43.23;;;21.50;;
8450;SDS011;4262;50.980;13.892;2022-10-31T18:08:18;36.20;;;18.03;;
8450;SDS011;4262;50.980;13.892;2022-10-31T18:10:44;33.63;;;17.97;;
8450;SDS011;4262;50.980;13.892;2022-10-31T18:13:11;34.73;;;18.80;;
8450;SDS011;4262;50.980;13.892;2022-10-31T18:15:38;31.87;;;18.60;;
8450;SDS011;4262;50.980;13.892;2022-10-31T18:18:06;33.23;;;19.50;;
8450;SDS011;4262;50.980;13.892;2022-10-31T18:20:33;32.90;;;19.13;;
8450;SDS011;4262;50.980;13.892;2022-10-31T18:23:00;30.93;;;18.50;;
8450;SDS011;4262;50.980;13.892;2022-10-31T18:25:27;31.37;;;18.40;;
8450;SDS011;4262;50.980;13.892;2022-10-31T18:27:54;37.57;;;19.57;;
8450;SDS011;4262;50.980;13.892;2022-10-31T18:30:21;31.60;;;18.10;;
8450;SDS011;4262;50.980;13.892;2022-10-31T18:32:48;39.80;;;18.30;;
8450;SDS011;4262;50.980;13.892;2022-10-31T18:35:17;32.83;;;18.30;;
8450;SDS011;4262;50.980;13.892;2022-10-31T18:37:44;33.97;;;18.60;;
8450;SDS011;4262;50.980;13.892;2022-10-31T18:40:11;35.97;;;19.60;;
8450;SDS011;4262;50.980;13.892;2022-10-31T18:42:38;38.57;;;21.40;;
8450;SDS011;4262;50.980;13.892;2022-10-31T18:45:06;42.70;;;19.20;;
8450;SDS011;4262;50.980;13.892;2022-10-31T18:47:33;41.83;;;23.23;;
8450;SDS011;4262;50.980;13.892;2022-10-31T18:50:00;45.50;;;21.63;;
8450;SDS011;4262;50.980;13.892;2022-10-31T18:52:28;37.23;;;20.93;;
8450;SDS011;4262;50.980;13.892;2022-10-31T18:54:55;44.70;;;23.13;;
8450;SDS011;4262;50.980;13.892;2022-10-31T18:57:22;43.30;;;22.33;;
8450;SDS011;4262;50.980;13.892;2022-10-31T18:59:49;39.60;;;22.43;;
8450;SDS011;4262;50.980;13.892;2022-10-31T19:02:15;41.13;;;21.67;;
8450;SDS011;4262;50.980;13.892;2022-10-31T19:04:42;46.40;;;21.60;;
8450;SDS011;4262;50.980;13.892;2022-10-31T19:07:09;38.20;;;19.43;;
8450;SDS011;4262;50.980;13.892;2022-10-31T19:09:37;34.63;;;21.23;;
8450;SDS011;4262;50.980;13.892;2022-10-31T19:12:04;38.00;;;20.77;;
8450;SDS011;4262;50.980;13.892;2022-10-31T19:14:31;44.50;;;21.00;;
8450;SDS011;4262;50.980;13.892;2022-10-31T19:16:59;36.53;;;20.27;;
8450;SDS011;4262;50.980;13.892;2022-10-31T19:19:25;42.73;;;20.03;;
8450;SDS011;4262;50.980;13.892;2022-10-31T19:21:52;39.70;;;20.00;;
8450;SDS011;4262;50.980;13.892;2022-10-31T19:24:20;37.50;;;18.93;;
8450;SDS011;4262;50.980;13.892;2022-10-31T19:26:48;34.07;;;20.50;;
8450;SDS011;4262;50.980;13.892;2022-10-31T19:29:14;43.87;;;20.80;;
8450;SDS011;4262;50.980;13.892;2022-10-31T19:31:41;36.77;;;20.30;;
8450;SDS011;4262;50.980;13.892;2022-10-31T19:34:08;41.10;;;20.33;;
8450;SDS011;4262;50.980;13.892;2022-10-31T19:36:35;34.53;;;19.60;;
8450;SDS011;4262;50.980;13.892;2022-10-31T19:39:02;37.60;;;21.83;;
8450;SDS011;4262;50.980;13.892;2022-10-31T19:41:29;46.73;;;23.50;;
8450;SDS011;4262;50.980;13.892;2022-10-31T19:43:58;66.37;;;22.40;;
8450;SDS011;4262;50.980;13.892;2022-10-31T19:46:27;37.03;;;21.83;;
8450;SDS011;4262;50.980;13.892;2022-10-31T19:48:54;34.20;;;20.47;;
8450;SDS011;4262;50.980;13.892;2022-10-31T19:51:21;47.33;;;20.43;;
8450;SDS011;4262;50.980;13.892;2022-10-31T19:53:48;44.33;;;21.63;;